Time;durP1;ratioP1;P1;durP2;ratioP2;P2;SDS_P1;SDS_P2;PMS_P1;PMS_P2;Temp;Humidity;BMP_temperature;BMP_pressure;BME280_temperature;BME280_humidity;BME280_pressure;Samples;Min_cycle;Max_cycle;Signal;HPM_P1;HPM_P2
2023/02/11 00:01:37;;;;;;;34.03;16.40;;;2.30;99.90;;;2.10;76.94;101519.84;5050807;28;20249;-62
2023/02/11 00:04:07;;;;;;;31.93;15.87;;;2.30;99.90;;;2.10;77.16;101514.75;5050636;28;20253;-61
2023/02/11 00:06:36;;;;;;;31.33;16.23;;;2.30;99.90;;;2.13;76.67;101514.91;5040771;28;20206;-64
2023/02/11 00:09:05;;;;;;;28.33;14.90;;;2.30;99.90;;;2.12;77.15;101506.41;5051660;28;20206;-61
2023/02/11 00:11:34;;;;;;;33.27;15.63;;;2.30;99.90;;;2.14;77.20;101506.50;5051220;28;20548;-62
2023/02/11 00:14:06;;;;;;;27.57;15.57;;;2.30;99.90;;;2.15;76.31;101515.88;5049734;28;20602;-63
2023/02/11 00:16:36;;;;;;;28.37;14.57;;;2.30;99.90;;;2.16;76.77;101499.81;5051841;28;20380;-63
2023/02/11 00:19:05;;;;;;;29.90;14.13;;;2.30;99.90;;;2.16;76.17;101500.66;5052311;28;20365;-61
2023/02/11 00:21:35;;;;;;;28.00;13.80;;;2.40;99.90;;;2.17;75.62;101481.19;5050846;28;20728;-61
2023/02/11 00:24:04;;;;;;;24.00;13.33;;;2.40;99.90;;;2.18;76.20;101485.50;5047197;28;20229;-60
2023/02/11 00:26:35;;;;;;;22.50;13.40;;;2.40;99.90;;;2.18;75.70;101482.97;5050977;28;20591;-62
2023/02/11 00:29:05;;;;;;;26.47;13.30;;;2.40;99.90;;;2.22;75.25;101482.28;5050916;28;20297;-61
2023/02/11 00:31:33;;;;;;;23.07;11.57;;;2.40;99.90;;;2.25;75.71;101486.66;5051289;28;20237;-61
2023/02/11 00:34:03;;;;;;;22.03;11.73;;;2.50;99.90;;;2.26;75.20;101471.47;5049465;28;20237;-62
2023/02/11 00:36:32;;;;;;;21.07;11.63;;;2.40;99.90;;;2.28;75.53;101463.88;5050928;28;20576;-60
2023/02/11 00:39:01;;;;;;;19.07;11.10;;;2.50;99.90;;;2.29;74.42;101468.19;5051021;28;20251;-63
2023/02/11 00:41:29;;;;;;;23.93;11.87;;;2.50;99.90;;;2.33;74.37;101465.84;5047365;28;20291;-63
2023/02/11 00:43:58;;;;;;;22.43;10.77;;;2.50;99.90;;;2.36;73.95;101458.34;5048245;28;20711;-61
2023/02/11 00:46:26;;;;;;;22.70;11.53;;;2.50;99.90;;;2.38;73.60;101431.28;5051888;28;20649;-63
2023/02/11 00:48:56;;;;;;;22.50;11.73;;;2.60;99.90;;;2.40;74.00;101422.06;5051701;28;20297;-62
2023/02/11 00:51:28;;;;;;;18.60;10.97;;;2.60;99.90;;;2.41;73.30;101420.41;5050623;28;20202;-62
2023/02/11 00:53:56;;;;;;;19.23;11.13;;;2.60;99.90;;;2.41;74.01;101411.09;5051500;28;20880;-62
2023/02/11 00:56:25;;;;;;;20.23;11.73;;;2.60;99.90;;;2.44;73.71;101401.88;5051049;28;20260;-64
2023/02/11 00:58:53;;;;;;;22.37;11.23;;;2.60;99.90;;;2.41;73.40;101395.81;5045084;28;20294;-64
2023/02/11 01:01:22;;;;;;;23.77;11.60;;;2.60;99.90;;;2.44;73.78;101391.69;5050909;28;20634;-61
2023/02/11 01:03:51;;;;;;;24.33;13.40;;;2.60;99.90;;;2.44;72.96;101391.69;5050907;28;20230;-61
2023/02/11 01:06:19;;;;;;;28.60;12.87;;;2.60;99.90;;;2.45;72.84;101380.69;5052055;28;20214;-61
2023/02/11 01:08:49;;;;;;;27.67;12.87;;;2.60;99.90;;;2.44;73.16;101379.84;5050580;28;20206;-61
2023/02/11 01:11:20;;;;;;;24.23;12.70;;;2.60;99.90;;;2.44;72.95;101374.75;5051026;28;20206;-63
2023/02/11 01:13:50;;;;;;;22.57;12.57;;;2.60;99.90;;;2.44;73.57;101374.75;5049861;28;20230;-62
2023/02/11 01:16:20;;;;;;;22.43;11.53;;;2.60;99.90;;;2.44;73.60;101376.44;5047812;28;20267;-61
2023/02/11 01:18:49;;;;;;;23.17;12.20;;;2.60;99.90;;;2.45;73.60;101360.34;5052199;28;20274;-60
2023/02/11 01:21:17;;;;;;;21.57;11.37;;;2.60;99.90;;;2.42;72.94;101341.59;5050511;28;20210;-61
2023/02/11 01:23:46;;;;;;;23.83;12.57;;;2.60;99.90;;;2.39;72.46;101331.31;5051720;28;20225;-65
2023/02/11 01:26:15;;;;;;;22.47;11.93;;;2.60;99.90;;;2.38;72.55;101321.94;5051388;28;20201;-62
2023/02/11 01:28:44;;;;;;;22.50;11.97;;;2.60;99.90;;;2.38;73.49;101319.38;5049662;28;20254;-60
2023/02/11 01:31:12;;;;;;;24.37;12.77;;;2.50;99.90;;;2.39;73.15;101316.06;5043943;28;20241;-62
2023/02/11 01:33:41;;;;;;;25.90;13.57;;;2.50;99.90;;;2.39;73.50;101305.88;5047153;28;20240;-59
2023/02/11 01:36:11;;;;;;;24.77;12.00;;;2.60;99.90;;;2.40;72.58;101294.03;5048498;28;20589;-62
2023/02/11 01:38:40;;;;;;;24.13;11.80;;;2.50;99.90;;;2.38;73.21;101304.13;5051908;28;20674;-61
2023/02/11 01:41:13;;;;;;;23.83;11.43;;;2.50;99.90;;;2.35;72.53;101298.91;5049379;28;20217;-63
2023/02/11 01:43:46;;;;;;;22.03;12.00;;;2.50;99.90;;;2.37;73.37;101307.47;5051283;28;20244;-59
2023/02/11 01:46:28;;;;;;;21.20;11.13;;;2.50;99.90;;;2.37;73.25;101314.25;5050849;28;20206;-63
2023/02/11 01:49:01;;;;;;;20.60;11.33;;;2.50;99.90;;;2.36;73.51;101326.09;5038490;28;20202;-62
2023/02/11 01:51:36;;;;;;;22.43;10.63;;;2.50;99.90;;;2.41;73.17;101339.00;5048640;28;20205;-62
2023/02/11 01:59:51;;;;;;;19.77;11.00;;;2.60;99.90;;;2.37;72.58;101297.31;5050458;28;20662;-62
2023/02/11 02:02:26;;;;;;;22.63;10.90;;;2.60;99.90;;;2.40;72.85;101299.13;5050686;28;20244;-63
2023/02/11 02:05:02;;;;;;;22.47;11.07;;;2.60;99.90;;;2.39;72.30;101288.09;5047447;28;20619;-63
2023/02/11 02:07:39;;;;;;;19.20;10.53;;;2.60;99.90;;;2.39;72.24;101282.09;5048337;28;20538;-62
2023/02/11 02:10:16;;;;;;;23.43;11.30;;;2.60;99.90;;;2.37;72.49;101271.00;5048879;28;20210;-63
2023/02/11 02:12:44;;;;;;;20.17;10.90;;;2.50;99.90;;;2.38;73.11;101258.34;5050338;28;20210;-64
2023/02/11 02:15:31;;;;;;;21.80;11.37;;;2.60;99.90;;;2.39;72.31;101237.22;5054077;28;20202;-63
2023/02/11 02:18:10;;;;;;;19.20;11.57;;;2.60;99.90;;;2.39;73.02;101227.03;5053754;28;20237;-62
2023/02/11 02:21:36;;;;;;;23.17;12.60;;;2.60;99.90;;;2.40;72.30;101226.22;5053753;28;20300;-67
2023/02/11 02:24:43;;;;;;;20.90;11.10;;;2.60;99.90;;;2.38;72.39;101216.78;5049524;28;20287;-60
2023/02/11 02:27:37;;;;;;;22.40;11.67;;;2.60;99.90;;;2.39;72.96;101218.50;5049143;28;20331;-62
2023/02/11 02:30:50;;;;;;;20.43;10.47;;;2.60;99.90;;;2.36;72.84;101221.81;5053092;28;20206;-63
2023/02/11 02:33:45;;;;;;;20.87;11.30;;;2.50;99.90;;;2.34;72.77;101225.09;5043211;28;20611;-62
2023/02/11 02:36:23;;;;;;;20.03;10.73;;;2.50;99.90;;;2.30;72.47;101220.69;5048871;28;20198;-62
2023/02/11 02:38:57;;;;;;;18.73;10.90;;;2.50;99.90;;;2.28;72.83;101213.00;5051915;28;20197;-62
2023/02/11 02:41:30;;;;;;;28.13;11.63;;;2.50;99.90;;;2.31;73.04;101205.50;5045480;28;20197;-63
2023/02/11 02:43:59;;;;;;;20.23;11.43;;;2.50;99.90;;;2.30;72.31;101193.59;5053791;28;20260;-62
2023/02/11 02:46:31;;;;;;;19.07;11.00;;;2.50;99.90;;;2.28;72.37;101192.66;5053269;28;20616;-62
2023/02/11 02:49:01;;;;;;;19.80;11.60;;;2.50;99.90;;;2.32;72.40;101201.25;5054207;28;20229;-64
2023/02/11 02:51:49;;;;;;;21.67;10.30;;;2.50;99.90;;;2.30;72.39;101201.22;5047618;28;20246;-62
2023/02/11 02:55:03;;;;;;;22.23;11.03;;;2.50;99.90;;;2.26;72.07;101195.94;5051465;28;20309;-63
2023/02/11 02:57:38;;;;;;;23.77;11.13;;;2.50;99.90;;;2.26;72.38;101194.28;5049510;28;20697;-61
2023/02/11 03:00:24;;;;;;;27.03;11.40;;;2.50;99.90;;;2.26;72.38;101191.72;5052423;28;20271;-63
2023/02/11 03:03:12;;;;;;;20.20;10.67;;;2.50;99.90;;;2.30;72.44;101185.97;5052621;28;20638;-63
2023/02/11 03:05:54;;;;;;;16.87;10.20;;;2.50;99.90;;;2.31;72.01;101185.16;5052436;28;20241;-64
2023/02/11 03:08:30;;;;;;;18.17;10.80;;;2.50;99.90;;;2.33;72.85;101182.69;5051175;28;20268;-66
2023/02/11 03:11:01;;;;;;;21.10;10.90;;;2.50;99.90;;;2.35;72.96;101186.13;5050631;28;20206;-63
2023/02/11 03:13:33;;;;;;;17.87;10.03;;;2.50;99.90;;;2.36;72.88;101177.72;5051096;28;20205;-63
2023/02/11 03:16:08;;;;;;;22.00;10.50;;;2.50;99.90;;;2.37;72.46;101180.31;5052927;28;20248;-62
2023/02/11 03:18:40;;;;;;;21.77;9.97;;;2.50;99.90;;;2.40;72.52;101164.31;5053287;28;20311;-63
2023/02/11 03:21:14;;;;;;;20.57;10.60;;;2.60;99.90;;;2.37;71.93;101159.97;5051770;28;20276;-62
2023/02/11 03:23:50;;;;;;;21.60;9.77;;;2.60;99.90;;;2.40;72.39;101149.91;5051398;28;20216;-61
2023/02/11 03:26:25;;;;;;;21.83;10.77;;;2.60;99.90;;;2.40;71.90;101154.16;5050741;28;20245;-62
2023/02/11 03:29:03;;;;;;;20.40;11.27;;;2.60;99.90;;;2.40;71.69;101154.16;5044916;28;20267;-64
2023/02/11 03:31:40;;;;;;;18.27;9.30;;;2.60;99.90;;;2.39;72.04;101143.09;5040975;28;20248;-63
2023/02/11 03:34:14;;;;;;;17.03;10.17;;;2.60;99.90;;;2.45;71.50;101136.50;5052982;28;20201;-62
2023/02/11 03:36:49;;;;;;;19.67;9.73;;;2.60;99.90;;;2.46;71.33;101134.00;5051634;28;20201;-61
2023/02/11 03:39:24;;;;;;;16.40;9.63;;;2.60;99.90;;;2.47;71.18;101122.16;5051520;28;20205;-61
2023/02/11 03:41:58;;;;;;;20.97;10.07;;;2.70;99.90;;;2.47;70.66;101117.97;5043170;28;20279;-62
2023/02/11 03:44:34;;;;;;;18.67;9.10;;;2.60;99.90;;;2.47;70.30;101120.50;5051970;28;20217;-61
2023/02/11 03:47:05;;;;;;;21.47;10.07;;;2.60;99.90;;;2.46;70.40;101118.75;5047597;28;20198;-63
2023/02/11 03:49:35;;;;;;;15.00;8.83;;;2.60;99.90;;;2.44;70.69;101109.34;5051689;28;20198;-61
2023/02/11 03:52:10;;;;;;;20.87;10.17;;;2.70;99.90;;;2.45;70.33;101111.06;5048586;28;20243;-62
2023/02/11 03:54:41;;;;;;;22.90;10.33;;;2.60;99.90;;;2.45;70.47;101103.44;5051489;28;20255;-62
2023/02/11 03:57:10;;;;;;;18.07;10.13;;;2.60;99.90;;;2.44;70.19;101112.75;5051750;28;20197;-61
2023/02/11 03:59:53;;;;;;;20.63;10.87;;;2.60;99.90;;;2.39;70.33;101092.25;5049503;28;20221;-62
2023/02/11 04:02:25;;;;;;;18.47;10.30;;;2.60;99.90;;;2.41;69.53;101088.06;5048526;28;20251;-64
2023/02/11 04:04:53;;;;;;;25.30;10.93;;;2.60;99.90;;;2.40;70.31;101073.63;5046470;28;20238;-63
2023/02/11 04:07:23;;;;;;;17.10;11.07;;;2.60;99.90;;;2.39;70.23;101071.88;5052169;28;20256;-64
2023/02/11 04:09:52;;;;;;;21.27;10.70;;;2.60;99.90;;;2.38;69.57;101048.94;5051040;28;20252;-62
2023/02/11 04:12:20;;;;;;;22.23;11.30;;;2.60;99.90;;;2.37;69.64;101042.97;5051619;28;20654;-64
2023/02/11 04:14:49;;;;;;;23.60;12.67;;;2.60;99.90;;;2.37;69.41;101042.13;5049675;28;20264;-63
2023/02/11 04:17:17;;;;;;;20.67;11.20;;;2.50;99.90;;;2.35;70.12;101044.59;5052130;28;20207;-61
2023/02/11 04:19:46;;;;;;;19.97;12.30;;;2.50;99.90;;;2.34;69.10;101044.53;5051082;28;20650;-63
2023/02/11 04:22:14;;;;;;;23.43;12.27;;;2.50;99.90;;;2.33;69.30;101045.34;5050854;28;20263;-64
2023/02/11 04:24:44;;;;;;;24.07;12.50;;;2.50;99.90;;;2.30;69.62;101043.56;5050718;28;20650;-62
2023/02/11 04:27:12;;;;;;;21.87;11.63;;;2.50;99.90;;;2.30;69.30;101030.84;5050644;28;20248;-61
2023/02/11 04:29:41;;;;;;;23.57;12.77;;;2.50;99.90;;;2.28;69.29;101032.44;5049773;28;20260;-60
2023/02/11 04:32:10;;;;;;;24.97;14.13;;;2.50;99.90;;;2.28;69.58;101029.03;5049492;28;20706;-62
2023/02/11 04:34:39;;;;;;;22.90;12.23;;;2.50;99.90;;;2.26;69.34;101021.38;5051202;28;20289;-61
2023/02/11 04:37:08;;;;;;;26.00;13.30;;;2.40;99.90;;;2.26;69.07;101025.59;5051059;28;20241;-62
2023/02/11 04:39:36;;;;;;;22.20;13.70;;;2.40;99.90;;;2.25;68.87;101009.47;5049482;28;20209;-60
2023/02/11 04:42:07;;;;;;;23.00;12.23;;;2.40;99.90;;;2.23;69.86;101012.75;5049513;28;20202;-61
2023/02/11 04:44:35;;;;;;;23.43;13.83;;;2.40;99.90;;;2.22;69.38;100994.09;5049386;28;20229;-62
2023/02/11 04:47:04;;;;;;;23.93;13.70;;;2.40;99.90;;;2.18;68.82;100988.03;5051135;28;20272;-64
2023/02/11 04:49:32;;;;;;;23.23;12.97;;;2.40;99.90;;;2.17;68.93;100963.41;5044478;28;20225;-61
2023/02/11 04:52:01;;;;;;;26.60;13.70;;;2.30;99.90;;;2.17;69.08;100957.44;5051533;28;20201;-62
2023/02/11 04:54:29;;;;;;;22.97;12.70;;;2.40;99.90;;;2.13;69.49;100958.16;5049118;28;20202;-62
2023/02/11 04:56:57;;;;;;;29.07;14.20;;;2.30;99.90;;;2.13;69.11;100950.50;5050156;28;20608;-64
2023/02/11 04:59:27;;;;;;;23.20;13.47;;;2.30;99.90;;;2.13;68.99;100945.44;5048350;28;20234;-63
2023/02/11 05:01:55;;;;;;;26.60;13.93;;;2.40;99.90;;;2.10;68.97;100950.41;5051271;28;20931;-63
2023/02/11 05:04:24;;;;;;;23.70;13.67;;;2.40;99.90;;;2.08;68.89;100946.94;5050260;28;20259;-65
2023/02/11 05:06:52;;;;;;;25.03;14.10;;;2.30;99.90;;;2.10;69.11;100955.47;5048272;28;20295;-62
2023/02/11 05:09:21;;;;;;;24.90;14.10;;;2.30;99.90;;;2.11;69.46;100957.22;5050995;28;20228;-63
2023/02/11 05:11:49;;;;;;;21.70;13.73;;;2.30;99.90;;;2.12;69.19;100948.78;5047699;28;20228;-63
2023/02/11 05:14:18;;;;;;;24.43;13.53;;;2.30;99.90;;;2.12;68.57;100934.41;5050205;28;20661;-62
2023/02/11 05:16:47;;;;;;;26.43;13.77;;;2.30;99.90;;;2.12;69.09;100931.00;5050718;28;20198;-64
2023/02/11 05:19:16;;;;;;;29.13;14.53;;;2.30;99.90;;;2.09;69.02;100918.16;5050517;28;20233;-64
2023/02/11 05:21:44;;;;;;;26.30;14.33;;;2.40;99.90;;;2.14;68.47;100906.50;5049850;28;20283;-63
2023/02/11 05:24:29;;;;;;;25.47;14.00;;;2.30;99.90;;;2.15;68.74;100903.16;5044922;28;20237;-62
2023/02/11 05:26:58;;;;;;;26.10;14.00;;;2.40;99.90;;;2.15;68.68;100908.25;5051554;28;20226;-62
2023/02/11 05:29:26;;;;;;;21.93;12.57;;;2.40;99.90;;;2.15;69.07;100886.22;5043122;28;20703;-63
2023/02/11 05:31:56;;;;;;;24.77;13.60;;;2.40;99.90;;;2.17;69.08;100898.97;5048293;28;20242;-65
2023/02/11 05:34:24;;;;;;;22.90;13.77;;;2.40;99.90;;;2.15;69.05;100904.00;5050981;28;20716;-65
2023/02/11 05:36:53;;;;;;;24.03;13.73;;;2.40;99.90;;;2.16;69.20;100904.88;5049107;28;20206;-61
2023/02/11 05:39:21;;;;;;;26.20;14.10;;;2.40;99.90;;;2.17;69.00;100912.56;5050229;28;20631;-63
2023/02/11 05:41:49;;;;;;;28.70;14.40;;;2.40;99.90;;;2.20;68.62;100901.63;5050848;28;20210;-62
2023/02/11 05:44:18;;;;;;;23.43;13.93;;;2.40;99.90;;;2.16;68.24;100909.97;5051028;28;20279;-63
2023/02/11 05:46:47;;;;;;;25.97;14.57;;;2.40;99.90;;;2.18;68.83;100905.81;5046936;28;20226;-65
2023/02/11 05:49:18;;;;;;;25.17;14.90;;;2.40;99.90;;;2.15;68.83;100898.06;5051003;28;20198;-62
2023/02/11 05:51:47;;;;;;;25.97;14.03;;;2.40;99.90;;;2.18;68.49;100898.19;5052509;28;20194;-64
2023/02/11 05:54:15;;;;;;;25.73;15.20;;;2.40;99.90;;;2.19;68.78;100892.28;5053918;28;20209;-63
2023/02/11 05:56:44;;;;;;;25.80;13.93;;;2.40;99.90;;;2.18;69.21;100888.88;5053365;28;20205;-63
2023/02/11 05:59:14;;;;;;;23.70;14.13;;;2.40;99.90;;;2.15;68.63;100882.81;5049468;28;20267;-62
2023/02/11 06:01:43;;;;;;;25.53;14.67;;;2.40;99.90;;;2.18;69.00;100875.31;5053614;28;20201;-62
2023/02/11 06:04:11;;;;;;;25.73;14.40;;;2.40;99.90;;;2.18;68.26;100877.84;5044550;28;20224;-63
2023/02/11 06:06:41;;;;;;;23.87;14.40;;;2.50;99.90;;;2.19;68.85;100866.84;5052053;28;20632;-63
2023/02/11 06:09:10;;;;;;;26.73;14.37;;;2.40;99.90;;;2.20;68.80;100865.16;5053161;28;20205;-62
2023/02/11 06:11:39;;;;;;;26.03;13.83;;;2.40;99.90;;;2.21;68.79;100871.97;5053715;28;20694;-63
2023/02/11 06:14:08;;;;;;;23.13;15.00;;;2.50;99.90;;;2.20;68.54;100858.41;5054821;28;20210;-63
2023/02/11 06:16:37;;;;;;;25.50;13.60;;;2.50;99.90;;;2.22;68.68;100859.34;5052063;28;20210;-61
2023/02/11 06:19:05;;;;;;;25.90;15.30;;;2.40;99.90;;;2.22;68.75;100858.47;5048715;28;20206;-63
2023/02/11 06:21:34;;;;;;;24.07;14.10;;;2.50;99.90;;;2.23;68.72;100845.81;5053066;28;20210;-64
2023/02/11 06:24:12;;;;;;;26.57;13.40;;;2.50;99.90;;;2.25;68.46;100854.38;5053778;28;20224;-61
2023/02/11 06:26:41;;;;;;;26.73;14.23;;;2.50;99.90;;;2.25;67.53;100858.59;5052153;28;20237;-63
2023/02/11 06:29:09;;;;;;;27.60;15.10;;;2.50;99.90;;;2.26;68.47;100858.63;5049825;28;20241;-62
2023/02/11 06:31:39;;;;;;;28.17;15.53;;;2.50;99.90;;;2.26;67.97;100858.63;5052618;28;20261;-62
2023/02/11 06:34:08;;;;;;;24.90;14.20;;;2.60;99.90;;;2.27;68.63;100845.09;5052475;28;20232;-62
2023/02/11 06:36:39;;;;;;;25.40;15.20;;;2.60;99.90;;;2.29;68.22;100848.56;5049692;28;20198;-63
2023/02/11 06:39:08;;;;;;;26.93;14.90;;;2.50;99.90;;;2.30;68.50;100837.59;5051152;28;20643;-62
2023/02/11 06:41:38;;;;;;;24.57;15.73;;;2.50;99.90;;;2.32;68.45;100827.44;5050836;28;20252;-64
2023/02/11 06:44:06;;;;;;;29.57;15.03;;;2.60;99.90;;;2.34;68.34;100826.69;5053731;28;20253;-63
2023/02/11 06:46:35;;;;;;;29.77;15.77;;;2.60;99.90;;;2.37;67.91;100823.41;5052325;28;20366;-63
2023/02/11 06:49:03;;;;;;;27.33;14.70;;;2.70;99.90;;;2.39;68.56;100825.19;5047886;28;20236;-63
2023/02/11 06:51:32;;;;;;;29.77;16.73;;;2.70;99.90;;;2.46;68.10;100848.28;5051771;28;20229;-62
2023/02/11 06:54:00;;;;;;;26.93;15.80;;;2.70;99.90;;;2.47;67.53;100824.56;5049461;28;20267;-62
2023/02/11 06:56:29;;;;;;;29.57;15.50;;;2.70;99.90;;;2.47;68.00;100822.91;5052053;28;20198;-63
2023/02/11 06:58:58;;;;;;;27.00;15.70;;;2.70;99.90;;;2.51;67.46;100832.38;5051861;28;20241;-62
2023/02/11 07:01:28;;;;;;;26.60;16.30;;;2.80;99.90;;;2.53;67.40;100810.38;5048955;28;20202;-62
2023/02/11 07:03:57;;;;;;;27.17;16.43;;;2.80;99.90;;;2.51;68.16;100800.97;5048980;28;20206;-67
2023/02/11 07:06:27;;;;;;;28.17;15.77;;;2.80;99.90;;;2.55;67.97;100802.81;5048732;28;20210;-65
2023/02/11 07:08:56;;;;;;;27.57;16.10;;;2.80;99.90;;;2.52;68.16;100808.66;5052208;28;20194;-64
2023/02/11 07:11:28;;;;;;;25.47;15.93;;;2.80;99.90;;;2.53;68.07;100812.06;5043398;28;20209;-63
2023/02/11 07:14:03;;;;;;;28.17;16.20;;;2.80;99.90;;;2.50;67.79;100814.50;5049641;28;20201;-64
2023/02/11 07:16:32;;;;;;;28.60;16.90;;;2.80;99.90;;;2.51;68.03;100817.09;5043506;28;20198;-64
2023/02/11 07:19:01;;;;;;;29.43;17.13;;;2.80;99.90;;;2.49;68.22;100806.00;5046600;28;20878;-67
2023/02/11 07:21:30;;;;;;;30.60;16.90;;;2.80;99.90;;;2.51;68.33;100823.88;5057921;28;20576;-67
2023/02/11 07:23:59;;;;;;;29.80;16.63;;;2.80;99.90;;;2.54;68.79;100816.31;5061800;28;20217;-66
2023/02/11 07:26:27;;;;;;;27.70;16.57;;;2.70;99.90;;;2.50;69.48;100817.03;5056016;28;20607;-67
2023/02/11 07:28:56;;;;;;;32.77;18.90;;;2.70;99.90;;;2.48;69.29;100813.59;5052501;28;20530;-67
2023/02/11 07:31:29;;;;;;;29.17;16.93;;;2.70;99.90;;;2.46;69.97;100826.25;5059339;28;20264;-66
2023/02/11 07:34:00;;;;;;;29.53;17.70;;;2.70;99.90;;;2.46;69.81;100805.03;5051837;28;20982;-68
2023/02/11 07:36:30;;;;;;;25.33;16.63;;;2.70;99.90;;;2.43;69.70;100823.63;5054957;28;20216;-66
2023/02/11 07:38:59;;;;;;;33.73;19.00;;;2.70;99.90;;;2.39;70.31;100819.22;5056085;28;20190;-65
2023/02/11 07:41:28;;;;;;;29.30;18.53;;;2.60;99.90;;;2.36;71.58;100803.88;5065497;28;20208;-66
2023/02/11 07:43:57;;;;;;;33.63;18.50;;;2.60;99.90;;;2.33;71.21;100808.84;5069849;28;20362;-67
2023/02/11 07:46:27;;;;;;;35.93;19.33;;;2.60;99.90;;;2.29;71.66;100801.94;5066981;28;20194;-68
2023/02/11 07:48:56;;;;;;;32.33;18.17;;;2.60;99.90;;;2.28;72.82;100801.06;5070157;28;20690;-69
2023/02/11 07:51:27;;;;;;;29.60;18.47;;;2.50;99.90;;;2.26;72.23;100799.28;5061461;28;20225;-67
2023/02/11 07:53:59;;;;;;;31.20;18.27;;;2.50;99.90;;;2.25;73.25;100795.88;5068318;28;20216;-67
2023/02/11 07:56:29;;;;;;;33.70;18.73;;;2.50;99.90;;;2.25;73.45;100803.53;5073184;28;20217;-67
2023/02/11 07:59:02;;;;;;;34.53;19.50;;;2.50;99.90;;;2.24;73.32;100801.75;5064873;28;20239;-67
2023/02/11 08:01:32;;;;;;;31.53;17.77;;;2.50;99.90;;;2.23;73.53;100805.13;5055452;28;20642;-64
2023/02/11 08:04:02;;;;;;;34.40;19.20;;;2.50;99.90;;;2.23;74.09;100794.97;5054730;28;20584;-67
2023/02/11 08:06:32;;;;;;;33.83;18.50;;;2.50;99.90;;;2.22;74.01;100793.25;5049980;28;20428;-66
2023/02/11 08:09:05;;;;;;;34.27;17.63;;;2.50;99.90;;;2.21;73.76;100796.59;5059898;28;21448;-67
2023/02/11 08:11:34;;;;;;;32.40;18.73;;;2.50;99.90;;;2.20;73.83;100782.13;5059634;28;20221;-68
2023/02/11 08:14:02;;;;;;;32.80;19.37;;;2.50;99.90;;;2.19;74.53;100780.41;5072739;28;20225;-62
2023/02/11 08:16:34;;;;;;;32.77;18.27;;;2.50;99.90;;;2.22;74.78;100788.16;5067225;28;20205;-64
2023/02/11 08:19:06;;;;;;;32.60;19.50;;;2.50;99.90;;;2.27;74.58;100783.22;5064059;28;20202;-64
2023/02/11 08:21:35;;;;;;;35.03;20.03;;;2.50;99.90;;;2.28;75.58;100787.47;5061938;28;20228;-70
2023/02/11 08:24:04;;;;;;;34.30;20.00;;;2.50;99.90;;;2.27;75.15;100779.00;5068833;28;20222;-68
2023/02/11 08:26:34;;;;;;;34.23;20.40;;;2.50;99.90;;;2.25;75.50;100772.16;5064404;28;20304;-67
2023/02/11 08:29:08;;;;;;;34.40;20.53;;;2.50;99.90;;;2.23;76.31;100756.81;5062731;28;20230;-69
2023/02/11 08:31:41;;;;;;;34.80;19.20;;;2.50;99.90;;;2.20;76.88;100759.25;5063924;28;20244;-68
2023/02/11 08:34:12;;;;;;;36.90;21.60;;;2.50;99.90;;;2.20;77.58;100763.47;5070358;28;20324;-63
2023/02/11 08:36:43;;;;;;;33.33;20.67;;;2.50;99.90;;;2.17;76.92;100765.13;5071127;28;20193;-66
2023/02/11 08:39:14;;;;;;;34.27;19.07;;;2.50;99.90;;;2.17;77.12;100770.22;5072432;28;20386;-66
2023/02/11 08:41:48;;;;;;;35.17;20.70;;;2.50;99.90;;;2.15;78.26;100768.41;5074194;28;20228;-66
2023/02/11 08:44:17;;;;;;;36.60;20.43;;;2.40;99.90;;;2.14;78.09;100757.38;5066149;28;20209;-64
2023/02/11 08:46:48;;;;;;;33.07;19.43;;;2.40;99.90;;;2.12;78.19;100750.50;5056821;28;20198;-66
2023/02/11 08:49:17;;;;;;;34.80;20.30;;;2.40;99.90;;;2.10;77.78;100737.75;5064809;28;20213;-62
2023/02/11 08:51:46;;;;;;;35.97;20.80;;;2.40;99.90;;;2.11;77.85;100725.91;5056927;28;20209;-63
2023/02/11 08:54:16;;;;;;;37.57;20.93;;;2.40;99.90;;;2.14;78.25;100728.56;5062901;28;20236;-66
2023/02/11 08:56:45;;;;;;;38.50;21.87;;;2.40;99.90;;;2.14;77.95;100703.16;5065963;28;20213;-63
2023/02/11 08:59:16;;;;;;;40.10;21.60;;;2.40;99.90;;;2.15;78.31;100707.41;5066835;28;20194;-66
2023/02/11 09:01:45;;;;;;;37.57;21.40;;;2.40;99.90;;;2.17;78.75;100700.69;5069626;28;20184;-63
2023/02/11 09:04:15;;;;;;;33.67;20.00;;;2.50;99.90;;;2.21;78.55;100715.25;5054514;28;20301;-64
2023/02/11 09:06:44;;;;;;;31.00;19.83;;;2.50;99.90;;;2.21;78.35;100699.09;5061032;28;20206;-63
2023/02/11 09:09:15;;;;;;;37.73;20.53;;;2.50;99.90;;;2.26;78.43;100692.50;5061382;28;20233;-64
2023/02/11 09:11:44;;;;;;;35.93;20.07;;;2.50;99.90;;;2.26;78.11;100675.56;5047545;28;20189;-62
2023/02/11 09:14:19;;;;;;;33.23;20.30;;;2.50;99.90;;;2.27;77.89;100667.13;5045195;28;20245;-64
2023/02/11 09:16:48;;;;;;;35.93;18.80;;;2.50;99.90;;;2.27;78.47;100678.97;5042943;28;20981;-63
2023/02/11 09:19:18;;;;;;;38.03;20.80;;;2.50;99.90;;;2.26;78.96;100667.94;5056131;28;20241;-63
2023/02/11 09:21:47;;;;;;;34.33;20.53;;;2.50;99.90;;;2.27;78.57;100669.66;5067684;28;20182;-63
2023/02/11 09:24:16;;;;;;;34.60;19.73;;;2.60;99.90;;;2.31;78.08;100685.88;5064102;28;20199;-64
2023/02/11 09:26:44;;;;;;;33.30;19.90;;;2.60;99.90;;;2.33;78.85;100682.56;5059090;28;20217;-63
2023/02/11 09:29:13;;;;;;;31.53;19.60;;;2.60;99.90;;;2.35;78.19;100693.63;5062217;28;20569;-63
2023/02/11 09:31:41;;;;;;;32.00;17.83;;;2.60;99.90;;;2.39;78.26;100686.97;5067652;28;20249;-63
2023/02/11 09:34:12;;;;;;;33.67;20.50;;;2.60;99.90;;;2.39;78.82;100687.88;5073055;28;20383;-65
2023/02/11 09:36:42;;;;;;;40.50;22.30;;;2.60;99.90;;;2.39;78.12;100689.53;5075394;28;20225;-63
2023/02/11 09:39:16;;;;;;;34.13;20.27;;;2.60;99.90;;;2.39;78.53;100700.59;5074112;28;20201;-64
2023/02/11 09:42:29;;;;;;;34.93;19.50;;;2.70;99.90;;;2.41;78.67;100698.94;5069029;28;20709;-64
2023/02/11 09:44:59;;;;;;;33.30;20.10;;;2.70;99.90;;;2.41;79.05;100719.28;5064798;28;20198;-64
2023/02/11 09:47:32;;;;;;;39.83;20.73;;;2.70;99.90;;;2.43;78.94;100726.97;5063505;28;20198;-64
2023/02/11 09:50:06;;;;;;;32.60;19.47;;;2.70;99.90;;;2.44;79.24;100727.84;5060230;28;20214;-65
2023/02/11 09:52:44;;;;;;;32.83;19.07;;;2.70;99.90;;;2.45;78.53;100721.94;5068655;28;20186;-65
2023/02/11 09:55:21;;;;;;;33.67;20.13;;;2.70;99.90;;;2.43;79.24;100719.34;5060416;28;20195;-64
2023/02/11 09:57:49;;;;;;;35.23;20.00;;;2.70;99.90;;;2.41;79.67;100704.03;5066990;28;20197;-64
2023/02/11 10:00:24;;;;;;;35.37;20.87;;;2.60;99.90;;;2.40;80.04;100689.59;5070849;28;20201;-64
2023/02/11 10:03:21;;;;;;;33.13;20.23;;;2.70;99.90;;;2.40;80.12;100676.00;5074950;28;20209;-63
2023/02/11 10:06:25;;;;;;;35.50;20.27;;;2.60;99.90;;;2.39;80.36;100671.72;5070226;28;20207;-64
2023/02/11 10:09:06;;;;;;;35.00;20.30;;;2.60;99.90;;;2.38;80.35;100692.88;5064699;28;20229;-65
2023/02/11 10:11:46;;;;;;;33.07;19.87;;;2.60;99.90;;;2.36;81.62;100697.06;5070674;28;20232;-64
2023/02/11 10:14:36;;;;;;;37.73;20.77;;;2.60;99.90;;;2.36;81.47;100699.63;5068278;28;20236;-64
2023/02/11 10:17:19;;;;;;;36.97;21.03;;;2.60;99.90;;;2.35;81.28;100702.97;5065779;28;20225;-64
2023/02/11 10:20:12;;;;;;;35.50;20.03;;;2.60;99.90;;;2.31;81.24;100675.72;5063741;28;20207;-64
2023/02/11 10:22:49;;;;;;;34.87;20.80;;;2.60;99.90;;;2.33;81.69;100667.31;5057504;28;20202;-64
2023/02/11 10:25:23;;;;;;;33.50;19.77;;;2.60;99.90;;;2.33;81.70;100654.59;5051033;28;20201;-65
2023/02/11 10:27:55;;;;;;;33.67;19.97;;;2.60;99.90;;;2.35;81.93;100665.66;5052127;28;20232;-63
2023/02/11 10:30:32;;;;;;;34.80;20.73;;;2.60;99.90;;;2.36;81.52;100652.16;5051358;28;20249;-66
2023/02/11 10:33:10;;;;;;;34.10;20.67;;;2.50;99.90;;;2.34;82.64;100640.22;5050845;28;20194;-67
2023/02/11 10:35:39;;;;;;;32.00;19.23;;;2.60;99.90;;;2.33;82.68;100636.81;5041972;28;20225;-64
2023/02/11 10:38:09;;;;;;;34.10;19.27;;;2.60;99.90;;;2.34;81.95;100615.63;5052484;28;20257;-69
2023/02/11 10:40:38;;;;;;;38.93;21.30;;;2.60;99.90;;;2.31;82.75;100628.25;5051735;28;20237;-66